Time;durP1;ratioP1;P1;durP2;ratioP2;P2;SDS_P1;SDS_P2;PMS_P1;PMS_P2;Temp;Humidity;BMP_temperature;BMP_pressure;BME280_temperature;BME280_humidity;BME280_pressure;Samples;Min_cycle;Max_cycle;Signal;HPM_P1;HPM_P2
2021/11/23 00:00:19;;;;;;;3.00;1.63;;;;;;;-12.39;92.43;100909.13;5073594;28;20045;-65
2021/11/23 00:02:46;;;;;;;3.92;1.70;;;;;;;-12.36;91.96;100910.91;5073451;28;20133;-64
2021/11/23 00:05:15;;;;;;;2.00;1.38;;;;;;;-12.52;91.92;100911.94;5073252;28;20053;-64
2021/11/23 00:07:42;;;;;;;2.72;1.50;;;;;;;-12.56;92.18;100920.09;5073624;28;20076;-64
2021/11/23 00:10:10;;;;;;;2.13;1.83;;;;;;;-12.67;94.32;100912.16;5073345;28;20079;-64
2021/11/23 00:12:37;;;;;;;1.52;1.33;;;;;;;-12.50;92.72;100912.84;5072865;28;20052;-64
2021/11/23 00:15:05;;;;;;;2.33;1.70;;;;;;;-12.56;92.86;100913.47;5072906;28;20080;-64
2021/11/23 00:17:34;;;;;;;1.85;1.50;;;;;;;-12.66;92.15;100911.38;5072938;28;20490;-64
2021/11/23 00:20:01;;;;;;;2.85;1.70;;;;;;;-12.80;92.26;100912.44;5073204;28;20487;-64
2021/11/23 00:22:31;;;;;;;1.60;1.40;;;;;;;-12.85;93.45;100917.25;5072679;28;20578;-63
2021/11/23 00:24:58;;;;;;;2.38;1.77;;;;;;;-12.82;92.90;100914.03;5072860;28;20048;-64
2021/11/23 00:27:25;;;;;;;1.70;1.30;;;;;;;-12.91;92.29;100906.13;5072795;28;20055;-64
2021/11/23 00:29:53;;;;;;;;;;;;;;;-12.78;91.82;100909.22;5073132;28;20056;-64
2021/11/23 00:32:20;;;;;;;1.23;1.15;;;;;;;-12.99;93.47;100911.69;5072856;28;19978;-64
2021/11/23 00:34:49;;;;;;;3.90;1.95;;;;;;;-13.09;93.47;100908.72;5072953;28;20139;-64
2021/11/23 00:37:17;;;;;;;5.53;1.40;;;;;;;-12.96;92.94;100914.31;5072378;28;20083;-64
2021/11/23 00:39:44;;;;;;;2.33;1.33;;;;;;;-13.07;92.00;100912.13;5072876;28;20139;-65
2021/11/23 00:42:11;;;;;;;4.47;1.70;;;;;;;-13.12;92.63;100919.47;5072762;28;20056;-64
2021/11/23 00:44:39;;;;;;;1.30;1.20;;;;;;;-13.03;91.98;100927.34;5072505;28;20049;-64
2021/11/23 00:47:05;;;;;;;;;;;;;;;-13.25;93.08;100928.09;5072150;28;20564;-64
2021/11/23 00:49:32;;;;;;;2.55;1.77;;;;;;;-13.29;94.13;100938.78;5072774;28;19963;-64
2021/11/23 00:52:01;;;;;;;2.17;1.27;;;;;;;-13.29;92.98;100941.28;5072958;28;20471;-64
2021/11/23 00:54:28;;;;;;;4.00;1.55;;;;;;;-13.18;92.20;100947.59;5072342;28;20080;-64
2021/11/23 00:56:55;;;;;;;1.52;1.17;;;;;;;-13.23;92.24;100951.56;5072316;28;20057;-64
2021/11/23 00:59:22;;;;;;;1.65;1.23;;;;;;;-13.32;93.02;100947.81;5072315;28;20044;-64
2021/11/23 01:01:49;;;;;;;1.77;1.40;;;;;;;-13.41;92.32;100949.13;5072287;28;20052;-64
2021/11/23 01:04:16;;;;;;;2.15;1.58;;;;;;;-13.41;93.03;100959.13;5071932;28;20510;-64
2021/11/23 01:06:45;;;;;;;;;;;;;;;-13.43;92.42;100963.22;5072979;28;20072;-64
2021/11/23 01:09:14;;;;;;;1.63;1.52;;;;;;;-13.48;93.17;100962.16;5072613;28;19921;-64
2021/11/23 01:11:41;;;;;;;2.70;1.50;;;;;;;-13.46;92.65;100958.06;5072131;28;20502;-64
2021/11/23 01:14:08;;;;;;;2.92;1.45;;;;;;;-13.45;93.72;100959.78;5072006;28;20387;-64
2021/11/23 01:16:35;;;;;;;1.27;1.10;;;;;;;-13.37;92.83;100962.63;5072229;28;20151;-64
2021/11/23 01:19:02;;;;;;;;;;;;;;;-13.31;91.78;100962.88;5072729;28;20094;-64
2021/11/23 01:21:29;;;;;;;1.40;1.30;;;;;;;-13.42;92.29;100962.41;5072031;28;19963;-64
2021/11/23 01:23:56;;;;;;;;;;;;;;;-13.47;91.74;100958.84;5072446;28;20048;-64
2021/11/23 01:26:25;;;;;;;3.10;1.45;;;;;;;-13.57;92.52;100959.22;5072013;28;19971;-64
2021/11/23 01:28:52;;;;;;;2.28;1.25;;;;;;;-13.65;91.84;100953.88;5072165;28;20072;-64
2021/11/23 01:31:19;;;;;;;1.67;1.25;;;;;;;-13.69;92.88;100949.53;5071902;28;20195;-64
2021/11/23 01:33:46;;;;;;;2.60;1.63;;;;;;;-13.72;92.71;100956.88;5071893;28;20080;-64
2021/11/23 01:36:13;;;;;;;2.35;1.50;;;;;;;-13.73;93.25;100965.16;5072160;28;20041;-64
2021/11/23 01:38:40;;;;;;;2.42;1.48;;;;;;;-13.76;92.66;100964.19;5072314;28;20139;-64
2021/11/23 01:41:08;;;;;;;1.90;1.63;;;;;;;-13.67;93.34;100960.44;5072276;28;20151;-64
2021/11/23 01:43:36;;;;;;;2.72;1.73;;;;;;;-13.63;93.50;100958.94;5071985;28;20084;-64
2021/11/23 01:46:04;;;;;;;1.40;1.30;;;;;;;-13.56;92.50;100952.56;5072094;28;20114;-64
2021/11/23 01:48:31;;;;;;;2.97;1.42;;;;;;;-13.64;92.03;100959.72;5071653;28;20087;-63
2021/11/23 01:50:59;;;;;;;1.85;1.40;;;;;;;-13.71;91.86;100960.25;5071786;28;20087;-64
2021/11/23 01:53:26;;;;;;;1.63;1.50;;;;;;;-13.73;92.14;100966.81;5071385;28;20084;-64
2021/11/23 01:55:53;;;;;;;1.30;1.20;;;;;;;-13.74;91.73;100970.97;5071728;28;20140;-63
2021/11/23 01:58:20;;;;;;;1.63;1.30;;;;;;;-13.65;91.36;100958.88;5071878;28;20045;-63
2021/11/23 02:00:49;;;;;;;2.28;1.45;;;;;;;-13.74;91.51;100960.97;5075998;28;20605;-64
2021/11/23 02:03:17;;;;;;;1.40;1.30;;;;;;;-13.70;92.05;100959.44;5075218;28;20449;-64
2021/11/23 02:05:45;;;;;;;3.72;1.58;;;;;;;-13.70;92.35;100967.81;5075744;28;20060;-64
2021/11/23 02:08:12;;;;;;;3.65;1.55;;;;;;;-13.70;92.00;100965.31;5075716;28;20430;-64
2021/11/23 02:10:40;;;;;;;1.40;1.23;;;;;;;-13.74;92.05;100970.97;5075510;28;20080;-64
2021/11/23 02:13:07;;;;;;;3.85;1.70;;;;;;;-13.70;93.23;100972.81;5075413;28;20139;-64
2021/11/23 02:15:34;;;;;;;;;;;;;;;-13.77;93.33;100970.81;5075499;28;20118;-64
2021/11/23 02:18:13;;;;;;;1.40;1.25;;;;;;;-13.87;92.47;100964.53;5075501;28;19990;-63
2021/11/23 02:20:42;;;;;;;1.52;1.42;;;;;;;-13.90;92.57;100966.88;5075284;28;20452;-64
2021/11/23 02:23:09;;;;;;;1.65;1.55;;;;;;;-13.93;92.01;100970.88;5075399;28;20072;-63
2021/11/23 02:25:36;;;;;;;3.47;1.52;;;;;;;-13.86;91.72;100971.25;5075377;28;20083;-64
2021/11/23 02:28:07;;;;;;;1.88;1.30;;;;;;;-13.86;91.07;100968.75;5075361;28;20086;-64
2021/11/23 02:30:37;;;;;;;3.03;1.55;;;;;;;-13.83;90.83;100963.88;5074886;28;20055;-64
2021/11/23 02:33:05;;;;;;;7.07;1.60;;;;;;;-13.79;90.84;100966.50;5075402;28;20048;-63
2021/11/23 02:35:33;;;;;;;1.58;1.48;;;;;;;-13.82;90.83;100959.72;5074739;28;20502;-64
2021/11/23 02:38:01;;;;;;;2.05;1.65;;;;;;;-13.86;90.42;100962.88;5074764;28;20052;-63
2021/11/23 02:40:29;;;;;;;1.40;1.30;;;;;;;-13.79;90.10;100969.91;5074979;28;20501;-64
2021/11/23 02:42:57;;;;;;;1.98;1.30;;;;;;;-13.74;89.34;100983.47;5074901;28;20140;-64
2021/11/23 02:45:27;;;;;;;3.20;1.45;;;;;;;-14.05;90.34;100984.53;5074570;28;20139;-64
2021/11/23 02:47:59;;;;;;;1.70;1.52;;;;;;;-14.09;92.92;100987.66;5074544;28;20044;-63
2021/11/23 02:50:27;;;;;;;3.05;1.63;;;;;;;-14.09;92.38;100986.81;5074845;28;20052;-64
2021/11/23 02:52:54;;;;;;;1.42;1.30;;;;;;;-14.00;91.44;100978.88;5074964;28;20131;-64
2021/11/23 02:55:23;;;;;;;;;;;;;;;-14.00;91.06;100976.38;5074944;28;20076;-64
2021/11/23 02:57:51;;;;;;;1.35;1.25;;;;;;;-13.95;90.46;100965.78;5075051;28;19967;-64
2021/11/23 03:00:20;;;;;;;2.15;1.50;;;;;;;-13.99;90.07;100968.97;5074206;28;20076;-64
2021/11/23 03:02:47;;;;;;;1.20;1.10;;;;;;;-14.01;90.53;100967.16;5074329;28;20525;-64
2021/11/23 03:05:16;;;;;;;1.35;1.25;;;;;;;-14.01;89.97;100965.53;5074489;28;20055;-64
2021/11/23 03:07:43;;;;;;;2.28;1.70;;;;;;;-14.03;90.11;100972.09;5074689;28;20131;-64
2021/11/23 03:10:11;;;;;;;;;;;;;;;-14.08;91.71;100974.38;5073824;28;20041;-63
2021/11/23 03:12:40;;;;;;;1.38;1.27;;;;;;;-14.13;92.16;100979.94;5074079;28;20378;-64
2021/11/23 03:15:10;;;;;;;1.50;1.40;;;;;;;-14.24;90.67;100981.06;5074124;28;20052;-64
2021/11/23 03:17:37;;;;;;;2.10;1.30;;;;;;;-14.24;92.47;100986.06;5074188;28;20098;-64
2021/11/23 03:20:05;;;;;;;;;;;;;;;-14.23;91.43;100981.13;5074630;28;20079;-64
2021/11/23 03:22:32;;;;;;;1.52;1.42;;;;;;;-14.04;90.72;100978.75;5074415;28;20010;-64
2021/11/23 03:24:58;;;;;;;;;;;;;;;-14.03;89.29;100972.09;5074964;28;20544;-64
2021/11/23 03:27:26;;;;;;;6.18;1.52;;;;;;;-14.24;91.66;100971.06;5074196;28;19967;-64
2021/11/23 03:29:54;;;;;;;1.23;1.17;;;;;;;-14.27;91.22;100969.28;5074470;28;20044;-64
2021/11/23 03:32:22;;;;;;;1.50;1.40;;;;;;;-14.35;91.22;100961.41;5073763;28;20139;-64
2021/11/23 03:34:50;;;;;;;1.13;1.13;;;;;;;-14.36;91.02;100964.69;5074148;28;20110;-64
2021/11/23 03:37:20;;;;;;;7.22;1.80;;;;;;;-14.39;91.25;100966.19;5073773;28;20044;-64
2021/11/23 03:39:48;;;;;;;1.50;1.40;;;;;;;-14.40;92.31;100971.97;5073816;28;20076;-64
2021/11/23 03:42:16;;;;;;;3.33;1.42;;;;;;;-14.38;92.38;100976.25;5073770;28;20090;-64
2021/11/23 03:44:44;;;;;;;1.27;1.17;;;;;;;-14.37;92.95;100969.63;5073988;28;20087;-64
2021/11/23 03:47:14;;;;;;;2.28;1.90;;;;;;;-14.28;93.33;100965.94;5073656;28;20086;-64
2021/11/23 03:49:43;;;;;;;2.65;1.50;;;;;;;-14.17;93.33;100970.59;5073453;28;20041;-64
2021/11/23 03:52:11;;;;;;;1.95;1.70;;;;;;;-14.15;93.10;100957.38;5073826;28;20123;-64
2021/11/23 03:54:39;;;;;;;2.58;2.20;;;;;;;-14.10;93.26;100960.94;5073562;28;20048;-63
2021/11/23 03:57:06;;;;;;;2.55;1.88;;;;;;;-14.10;92.17;100962.56;5073752;28;20056;-64
2021/11/23 03:59:33;;;;;;;2.03;1.80;;;;;;;-14.06;93.18;100946.94;5073446;28;20122;-64
2021/11/23 04:02:00;;;;;;;;;;;;;;;-13.92;92.91;100950.06;5073663;28;20139;-64
2021/11/23 04:04:28;;;;;;;5.00;1.90;;;;;;;-13.94;92.39;100946.66;5073005;28;20374;-64
2021/11/23 04:06:57;;;;;;;2.13;1.50;;;;;;;-13.96;91.83;100956.59;5073516;28;20079;-64
2021/11/23 04:09:24;;;;;;;1.33;1.23;;;;;;;-13.94;91.97;100955.03;5072865;28;20133;-65
2021/11/23 04:11:51;;;;;;;1.95;1.50;;;;;;;-13.88;92.36;100952.81;5073158;28;20529;-64
2021/11/23 04:14:18;;;;;;;1.95;1.23;;;;;;;-13.87;91.66;100946.16;5072693;28;20056;-64
2021/11/23 04:16:46;;;;;;;1.80;1.48;;;;;;;-13.91;91.66;100951.81;5073172;28;20521;-64
2021/11/23 04:19:13;;;;;;;2.25;1.85;;;;;;;-13.89;91.96;100950.25;5073044;28;20453;-64
2021/11/23 04:21:41;;;;;;;2.40;1.70;;;;;;;-13.89;92.57;100946.09;5072213;28;20367;-63
2021/11/23 04:24:08;;;;;;;7.35;2.10;;;;;;;-13.85;92.36;100930.41;5072416;28;20494;-63
2021/11/23 04:26:35;;;;;;;2.63;1.73;;;;;;;-13.78;91.43;100920.72;5072941;28;20087;-64
2021/11/23 04:29:02;;;;;;;2.67;1.65;;;;;;;-13.70;91.73;100921.91;5072750;28;20098;-64
2021/11/23 04:31:29;;;;;;;;;;;;;;;-13.72;91.25;100914.31;5072774;28;20084;-64
2021/11/23 04:33:56;;;;;;;3.17;1.50;;;;;;;-13.75;92.26;100908.34;5073073;28;19955;-64
2021/11/23 04:36:23;;;;;;;;;;;;;;;-13.67;92.15;100907.03;5073110;28;20053;-64
2021/11/23 04:38:52;;;;;;;7.32;1.70;;;;;;;-13.71;91.66;100896.03;5072598;28;19960;-64
2021/11/23 04:41:19;;;;;;;1.40;1.30;;;;;;;-13.62;91.98;100886.44;5072316;28;20488;-63
2021/11/23 04:43:46;;;;;;;5.85;2.05;;;;;;;-13.54;92.24;100889.28;5072517;28;20080;-64
2021/11/23 04:46:13;;;;;;;3.33;1.60;;;;;;;-13.54;91.70;100889.28;5072461;28;20596;-63
2021/11/23 04:48:40;;;;;;;2.35;1.65;;;;;;;-13.48;92.03;100883.69;5072281;28;20087;-64
2021/11/23 04:51:07;;;;;;;1.58;1.30;;;;;;;-13.38;92.09;100886.66;5072737;28;20048;-64
2021/11/23 04:53:34;;;;;;;1.77;1.42;;;;;;;-13.39;91.82;100892.44;5072413;28;20053;-63
2021/11/23 04:56:02;;;;;;;;;;;;;;;-13.30;92.03;100898.66;5073019;28;20059;-63
2021/11/23 04:58:29;;;;;;;2.08;1.83;;;;;;;-13.24;91.79;100901.41;5071994;28;19952;-64
2021/11/23 05:00:56;;;;;;;;;;;;;;;-13.23;92.47;100895.59;5073068;28;20044;-64
2021/11/23 05:03:23;;;;;;;2.70;1.60;;;;;;;-13.23;92.68;100895.59;5072181;28;19967;-64
2021/11/23 05:05:50;;;;;;;4.03;2.42;;;;;;;-13.21;92.17;100891.50;5072408;28;20052;-63
2021/11/23 05:08:17;;;;;;;4.30;2.35;;;;;;;-13.18;92.82;100886.63;5071960;28;20406;-64
2021/11/23 05:10:44;;;;;;;5.25;2.15;;;;;;;-13.07;92.93;100897.09;5072342;28;20076;-64
2021/11/23 05:13:12;;;;;;;3.45;2.10;;;;;;;-13.06;93.10;100896.31;5072467;28;20076;-64
2021/11/23 05:15:39;;;;;;;5.55;2.20;;;;;;;-12.99;92.99;100900.81;5071982;28;20477;-64
2021/11/23 05:18:06;;;;;;;3.75;2.13;;;;;;;-12.89;93.34;100902.91;5072213;28;20048;-64
2021/11/23 05:20:33;;;;;;;8.18;2.70;;;;;;;-12.77;93.31;100902.53;5072311;28;20044;-64
2021/11/23 05:23:00;;;;;;;19.63;3.83;;;;;;;-12.84;93.18;100903.06;5072016;28;20591;-64
2021/11/23 05:25:27;;;;;;;7.57;2.13;;;;;;;-12.86;93.73;100908.03;5071979;28;20135;-64
2021/11/23 05:27:54;;;;;;;8.77;3.03;;;;;;;-12.83;93.82;100917.34;5071948;28;20506;-64
2021/11/23 05:30:23;;;;;;;6.03;2.70;;;;;;;-12.78;94.04;100918.38;5071680;28;20080;-64
2021/11/23 05:32:52;;;;;;;9.48;2.45;;;;;;;-12.68;94.04;100923.00;5072162;28;20083;-64
2021/11/23 05:35:19;;;;;;;5.78;2.15;;;;;;;-12.62;93.67;100930.75;5071601;28;20045;-63
2021/11/23 05:37:47;;;;;;;3.08;1.98;;;;;;;-12.59;93.30;100923.34;5071911;28;20044;-64
2021/11/23 05:40:14;;;;;;;5.50;2.40;;;;;;;-12.51;93.51;100917.03;5072327;28;20071;-64
2021/11/23 05:42:41;;;;;;;4.65;2.95;;;;;;;-12.50;93.74;100913.72;5072328;28;20126;-64
2021/11/23 05:45:10;;;;;;;;;;;;;;;-12.41;93.94;100923.25;5072242;28;20490;-63
2021/11/23 05:47:39;;;;;;;8.35;2.83;;;;;;;-12.36;94.75;100925.94;5071632;28;19920;-64
2021/11/23 05:50:07;;;;;;;6.65;2.70;;;;;;;-12.35;94.69;100923.50;5071858;28;20080;-64
2021/11/23 05:52:34;;;;;;;9.98;3.10;;;;;;;-12.29;94.70;100932.91;5071769;28;20094;-64
2021/11/23 05:55:01;;;;;;;6.60;3.03;;;;;;;-12.28;94.45;100924.59;5071702;28;20072;-64
2021/11/23 05:57:28;;;;;;;11.68;3.75;;;;;;;-12.26;95.61;100905.44;5071286;28;20094;-64
2021/11/23 05:59:54;;;;;;;11.10;3.50;;;;;;;-12.16;95.22;100912.53;5071733;28;20048;-64
2021/11/23 06:02:21;;;;;;;14.05;4.43;;;;;;;-12.10;95.81;100906.91;5071810;28;20076;-65
2021/11/23 06:04:50;;;;;;;15.85;4.13;;;;;;;-12.06;96.44;100908.75;5072013;28;20084;-65
2021/11/23 06:07:17;;;;;;;13.70;4.80;;;;;;;-12.07;96.11;100917.94;5071148;28;20057;-67
2021/11/23 06:09:44;;;;;;;13.32;4.38;;;;;;;-11.78;94.87;100910.63;5072192;28;20098;-66
2021/11/23 06:12:11;;;;;;;16.23;4.70;;;;;;;-11.80;94.95;100908.84;5071708;28;20079;-67
2021/11/23 06:14:39;;;;;;;12.20;3.72;;;;;;;-11.82;95.32;100918.81;5070929;28;20087;-68
2021/11/23 06:17:07;;;;;;;14.45;3.65;;;;;;;-11.86;95.33;100902.00;5071497;28;20087;-68
2021/11/23 06:19:34;;;;;;;14.75;4.60;;;;;;;-11.85;96.22;100909.53;5071147;28;20044;-69
2021/11/23 06:22:03;;;;;;;14.35;4.18;;;;;;;-11.80;96.22;100906.34;5071889;28;20398;-68
2021/11/23 06:24:31;;;;;;;19.63;5.22;;;;;;;-11.75;95.86;100909.88;5071102;28;20048;-67
2021/11/23 06:26:58;;;;;;;13.63;4.63;;;;;;;-11.74;95.72;100909.94;5071398;28;20521;-68
2021/11/23 06:29:25;;;;;;;20.23;4.60;;;;;;;-11.70;96.39;100910.91;5071043;28;20040;-68
2021/11/23 06:31:52;;;;;;;21.45;3.70;;;;;;;-11.68;96.16;100910.19;5071526;28;20091;-67
2021/11/23 06:34:20;;;;;;;10.15;3.90;;;;;;;-11.41;95.15;100905.28;5071528;28;20128;-67
2021/11/23 06:36:46;;;;;;;;;;;;;;;-11.46;95.86;100910.97;5071770;28;20143;-67
2021/11/23 06:39:15;;;;;;;10.68;4.18;;;;;;;-11.30;94.87;100907.34;5071586;28;20378;-68
2021/11/23 06:41:42;;;;;;;15.32;4.80;;;;;;;-11.36;95.13;100909.66;5071485;28;20079;-67
2021/11/23 06:44:09;;;;;;;8.13;3.15;;;;;;;-11.34;95.70;100903.03;5071529;28;20132;-67
2021/11/23 06:46:36;;;;;;;10.43;3.90;;;;;;;-10.90;94.07;100894.53;5073255;28;20083;-66
2021/11/23 06:49:03;;;;;;;6.70;2.95;;;;;;;-10.65;93.24;100900.38;5074719;28;20566;-68
2021/11/23 06:51:31;;;;;;;10.85;2.40;;;;;;;-10.59;94.27;100896.41;5074299;28;20422;-66
2021/11/23 06:53:58;;;;;;;4.72;2.35;;;;;;;-10.52;96.50;100907.53;5074685;28;20076;-66
2021/11/23 06:56:26;;;;;;;;;;;;;;;-10.57;97.12;100891.44;5074749;28;20079;-66
2021/11/23 06:58:55;;;;;;;9.07;4.50;;;;;;;-10.67;96.90;100895.28;5074875;28;19920;-67
2021/11/23 07:01:22;;;;;;;14.50;4.95;;;;;;;-10.85;96.33;100894.69;5074228;28;20487;-67
2021/11/23 07:03:49;;;;;;;3.40;3.03;;;;;;;-10.49;96.49;100889.16;5074473;28;20048;-68
2021/11/23 07:06:16;;;;;;;7.68;3.80;;;;;;;-10.35;95.64;100886.28;5074550;28;20076;-68
2021/11/23 07:08:44;;;;;;;11.30;3.83;;;;;;;-10.51;95.41;100881.56;5074398;28;20072;-69
2021/11/23 07:11:12;;;;;;;10.43;3.80;;;;;;;-10.46;94.60;100875.00;5074420;28;20143;-69
2021/11/23 07:13:40;;;;;;;12.50;4.47;;;;;;;-10.51;94.58;100876.53;5074142;28;20075;-68
2021/11/23 07:16:07;;;;;;;7.78;4.05;;;;;;;-10.25;94.39;100879.84;5074227;28;20093;-68
2021/11/23 07:18:34;;;;;;;10.05;4.05;;;;;;;-10.26;94.06;100872.25;5074010;28;20114;-68
2021/11/23 07:21:01;;;;;;;11.13;4.32;;;;;;;-10.29;93.94;100865.50;5073975;28;20050;-68
2021/11/23 07:23:28;;;;;;;6.50;3.40;;;;;;;-10.23;93.48;100869.81;5073873;28;20128;-68
2021/11/23 07:25:55;;;;;;;10.43;3.92;;;;;;;-10.26;93.56;100868.06;5074013;28;20052;-69
2021/11/23 07:28:22;;;;;;;5.20;3.25;;;;;;;-10.21;93.05;100868.22;5074105;28;20048;-68
2021/11/23 07:30:54;;;;;;;5.50;3.10;;;;;;;-10.18;93.54;100875.84;5073729;28;20572;-67
2021/11/23 07:33:22;;;;;;;9.20;3.38;;;;;;;-10.31;93.73;100872.97;5073717;28;20056;-69
2021/11/23 07:35:49;;;;;;;11.65;3.83;;;;;;;-10.48;94.57;100873.25;5073883;28;20051;-68
2021/11/23 07:38:16;;;;;;;10.80;4.07;;;;;;;-10.40;93.94;100882.78;5073980;28;20087;-68
2021/11/23 07:40:43;;;;;;;;;;;;;;;-10.41;93.73;100877.69;5074127;28;20080;-69
2021/11/23 07:43:10;;;;;;;7.22;3.25;;;;;;;-10.56;93.71;100865.47;5073953;28;19920;-68
2021/11/23 07:45:38;;;;;;;2.90;2.38;;;;;;;-10.25;95.06;100864.72;5073922;28;20044;-68
2021/11/23 07:48:07;;;;;;;7.40;3.67;;;;;;;-10.20;94.82;100867.41;5073990;28;20048;-68
2021/11/23 07:50:34;;;;;;;4.30;2.15;;;;;;;-10.24;96.36;100868.97;5073309;28;20143;-68
2021/11/23 07:53:01;;;;;;;2.72;2.10;;;;;;;-10.35;96.08;100868.69;5073423;28;20466;-68
2021/11/23 07:55:28;;;;;;;12.20;4.10;;;;;;;-10.46;96.67;100871.66;5073172;28;20044;-68
2021/11/23 07:57:55;;;;;;;4.97;2.42;;;;;;;-10.38;96.10;100877.78;5073488;28;20044;-68
2021/11/23 08:00:25;;;;;;;10.10;4.35;;;;;;;-10.34;95.96;100867.88;5072973;28;20071;-68
2021/11/23 08:02:52;;;;;;;11.07;3.85;;;;;;;-10.40;96.02;100876.88;5073411;28;20087;-68
2021/11/23 08:05:21;;;;;;;7.28;3.80;;;;;;;-10.27;95.83;100865.53;5073069;28;20552;-68
2021/11/23 08:07:48;;;;;;;4.25;2.42;;;;;;;-10.21;95.73;100863.19;5073486;28;20080;-68
2021/11/23 08:10:15;;;;;;;6.30;2.47;;;;;;;-10.11;95.27;100855.97;5073337;28;20041;-68
2021/11/23 08:12:42;;;;;;;;;;;;;;;-10.15;95.48;100849.09;5073921;28;20052;-68
2021/11/23 08:15:10;;;;;;;8.40;3.30;;;;;;;-10.19;94.95;100842.28;5073109;28;19920;-69
2021/11/23 08:17:36;;;;;;;2.70;1.95;;;;;;;-10.14;94.81;100837.41;5073112;28;20094;-68
2021/11/23 08:20:05;;;;;;;5.63;3.00;;;;;;;-10.22;95.42;100838.81;5072896;28;20132;-68
2021/11/23 08:22:34;;;;;;;2.33;1.88;;;;;;;-10.22;95.48;100832.16;5072977;28;20052;-68
2021/11/23 08:25:01;;;;;;;4.65;2.70;;;;;;;-10.39;94.88;100826.63;5073147;28;20406;-68
2021/11/23 08:27:28;;;;;;;4.93;2.70;;;;;;;-10.36;95.20;100823.34;5072596;28;20045;-68
2021/11/23 08:29:55;;;;;;;;;;;;;;;-10.32;95.62;100815.94;5073329;28;20049;-68
2021/11/23 08:32:22;;;;;;;2.65;1.80;;;;;;;-10.40;95.05;100803.91;5072967;28;19943;-68
2021/11/23 08:34:49;;;;;;;2.85;2.05;;;;;;;-10.43;94.55;100801.31;5072673;28;20139;-68
2021/11/23 08:37:16;;;;;;;2.05;1.65;;;;;;;-10.53;94.69;100803.56;5072767;28;20052;-68
2021/11/23 08:39:45;;;;;;;6.57;1.83;;;;;;;-10.52;95.06;100797.72;5072503;28;20131;-68
2021/11/23 08:42:13;;;;;;;2.78;1.80;;;;;;;-10.46;95.06;100797.03;5072542;28;20375;-69
2021/11/23 08:44:40;;;;;;;2.17;1.65;;;;;;;-10.40;95.16;100789.69;5072145;28;20052;-68
2021/11/23 08:47:07;;;;;;;1.77;1.27;;;;;;;-10.53;94.47;100790.13;5072432;28;20406;-67
2021/11/23 08:49:34;;;;;;;;;;;;;;;-10.50;95.00;100786.88;5072916;28;20166;-69
2021/11/23 08:52:01;;;;;;;1.67;1.58;;;;;;;-10.49;94.73;100781.84;5072701;28;19990;-70
2021/11/23 08:54:29;;;;;;;;;;;;;;;-10.49;95.16;100786.03;5072506;28;20052;-69
2021/11/23 08:57:02;;;;;;;2.92;1.70;;;;;;;-10.52;94.51;100781.78;5072727;28;20002;-69
2021/11/23 08:59:31;;;;;;;3.40;1.55;;;;;;;-10.55;94.79;100776.66;5072501;28;20063;-69
2021/11/23 09:01:58;;;;;;;1.23;1.20;;;;;;;-10.55;95.15;100776.66;5072390;28;20051;-69
2021/11/23 09:04:25;;;;;;;2.08;1.75;;;;;;;-10.46;94.74;100769.38;5071910;28;20079;-69
2021/11/23 09:06:54;;;;;;;3.67;2.35;;;;;;;-10.43;94.95;100766.94;5072167;28;20416;-69
2021/11/23 09:09:24;;;;;;;2.75;1.23;;;;;;;-10.39;94.47;100765.38;5071259;28;20076;-69
2021/11/23 09:11:52;;;;;;;6.03;2.85;;;;;;;-10.56;94.85;100755.69;5072071;28;20054;-69
2021/11/23 09:14:20;;;;;;;2.22;1.73;;;;;;;-10.31;94.07;100747.19;5071779;28;20052;-69
2021/11/23 09:16:48;;;;;;;2.13;1.65;;;;;;;-10.23;94.03;100747.38;5072394;28;20049;-69
2021/11/23 09:19:15;;;;;;;6.13;2.05;;;;;;;-10.22;94.19;100733.13;5071745;28;20072;-69
2021/11/23 09:21:42;;;;;;;1.30;1.15;;;;;;;-10.14;94.18;100726.69;5072262;28;20048;-69
2021/11/23 09:24:09;;;;;;;2.25;1.70;;;;;;;-10.18;94.85;100733.28;5071980;28;20079;-69
2021/11/23 09:26:36;;;;;;;1.55;1.33;;;;;;;-10.08;94.53;100724.31;5071875;28;20076;-69
2021/11/23 09:29:03;;;;;;;4.10;1.67;;;;;;;-10.05;94.44;100729.44;5072282;28;20131;-69
2021/11/23 09:31:32;;;;;;;5.45;2.40;;;;;;;-10.04;94.77;100717.69;5071540;28;20076;-69
2021/11/23 09:33:59;;;;;;;4.25;2.28;;;;;;;-10.07;94.54;100731.06;5072057;28;20139;-69
2021/11/23 09:36:26;;;;;;;7.95;2.85;;;;;;;-9.99;94.74;100726.22;5071574;28;20068;-69
2021/11/23 09:38:53;;;;;;;3.85;2.17;;;;;;;-9.98;94.60;100725.44;5072161;28;20094;-69
2021/11/23 09:41:20;;;;;;;;;;;;;;;-9.90;95.23;100717.28;5072327;28;20127;-68
2021/11/23 09:43:47;;;;;;;4.03;1.92;;;;;;;-9.91;94.90;100725.66;5071941;28;19982;-69
2021/11/23 09:46:14;;;;;;;5.15;2.30;;;;;;;-9.83;95.87;100722.50;5072080;28;20048;-69
2021/11/23 09:48:44;;;;;;;2.70;1.85;;;;;;;-9.76;95.37;100712.63;5071741;28;20453;-69
2021/11/23 09:51:16;;;;;;;4.50;2.20;;;;;;;-9.68;96.00;100715.34;5071770;28;20076;-69
2021/11/23 09:53:43;;;;;;;1.73;1.45;;;;;;;-9.64;95.79;100707.91;5072108;28;20045;-69
2021/11/23 09:56:10;;;;;;;1.80;1.50;;;;;;;-9.64;95.87;100705.38;5071751;28;20102;-69
2021/11/23 09:58:37;;;;;;;4.35;2.83;;;;;;;-9.65;95.79;100706.19;5071372;28;20549;-69
2021/11/23 10:01:08;;;;;;;3.88;2.08;;;;;;;-9.54;95.68;100706.47;5071707;28;20044;-69
2021/11/23 10:03:36;;;;;;;5.88;2.58;;;;;;;-9.47;95.89;100715.91;5071099;28;20062;-69
2021/11/23 10:06:10;;;;;;;2.47;1.05;;;;;;;-9.28;96.30;100706.28;5071691;28;20057;-69
2021/11/23 10:08:40;;;;;;;1.38;1.27;;;;;;;-9.14;96.66;100716.69;5071317;28;20483;-68
2021/11/23 10:11:07;;;;;;;1.10;0.90;;;;;;;-9.01;96.61;100718.72;5071745;28;20052;-68
2021/11/23 10:13:46;;;;;;;4.40;1.92;;;;;;;-8.96;96.54;100724.72;5071386;28;20141;-70
2021/11/23 10:16:14;;;;;;;3.58;2.25;;;;;;;-8.90;96.55;100711.41;5071366;28;20121;-69
2021/11/23 10:18:44;;;;;;;1.05;1.05;;;;;;;-8.88;96.18;100697.16;5071407;28;20152;-69
2021/11/23 10:21:14;;;;;;;5.80;2.33;;;;;;;-8.87;96.05;100684.56;5074807;28;20076;-69
2021/11/23 10:23:45;;;;;;;2.40;1.70;;;;;;;-8.78;96.37;100676.38;5075155;28;20056;-69
2021/11/23 10:26:16;;;;;;;2.38;2.17;;;;;;;-8.77;96.40;100658.72;5075148;28;20060;-69
2021/11/23 10:28:46;;;;;;;2.38;1.20;;;;;;;-8.78;96.03;100662.09;5075407;28;20044;-69
2021/11/23 10:31:15;;;;;;;3.97;2.20;;;;;;;-8.77;95.87;100651.16;5074862;28;20048;-69
2021/11/23 10:33:43;;;;;;;3.28;1.90;;;;;;;-8.82;95.57;100644.31;5075012;28;20048;-69
2021/11/23 10:36:15;;;;;;;4.28;2.50;;;;;;;-8.86;95.75;100637.50;5075169;28;20047;-68
2021/11/23 10:38:43;;;;;;;4.65;1.98;;;;;;;-8.88;96.10;100652.63;5075119;28;20410;-69
2021/11/23 10:41:13;;;;;;;2.53;1.75;;;;;;;-8.87;96.13;100656.81;5075277;28;20049;-69
2021/11/23 10:43:42;;;;;;;1.58;1.42;;;;;;;-8.83;95.71;100640.13;5075012;28;20083;-69
2021/11/23 10:46:15;;;;;;;6.72;2.20;;;;;;;-8.80;95.95;100635.13;5075086;28;20048;-68
2021/11/23 10:48:42;;;;;;;3.20;1.95;;;;;;;-8.77;95.65;100630.16;5074764;28;20049;-68
2021/11/23 10:51:13;;;;;;;2.60;1.90;;;;;;;-8.80;95.80;100620.84;5074992;28;20040;-68
2021/11/23 10:53:42;;;;;;;3.22;2.15;;;;;;;-8.75;96.24;100620.09;5074741;28;20102;-69
2021/11/23 10:56:18;;;;;;;0.98;0.98;;;;;;;-8.74;96.41;100611.72;5074661;28;20059;-69
2021/11/23 10:58:47;;;;;;;5.30;1.70;;;;;;;-8.65;96.17;100609.38;5075018;28;20103;-69
2021/11/23 11:01:15;;;;;;;1.65;1.55;;;;;;;-8.62;96.16;100601.88;5074927;28;20080;-68
2021/11/23 11:03:43;;;;;;;1.92;1.55;;;;;;;-8.55;96.12;100596.16;5074740;28;20109;-68
2021/11/23 11:06:13;;;;;;;2.83;2.00;;;;;;;-8.49;96.39;100587.84;5074520;28;20075;-68
2021/11/23 11:08:44;;;;;;;6.75;2.75;;;;;;;-8.40;96.54;100582.94;5074394;28;20079;-68
2021/11/23 11:11:16;;;;;;;1.55;1.45;;;;;;;-8.27;96.98;100577.31;5074321;28;20048;-68
2021/11/23 11:13:48;;;;;;;2.63;1.80;;;;;;;-8.16;96.68;100573.28;5074391;28;20052;-66
2021/11/23 11:16:16;;;;;;;3.88;1.45;;;;;;;-8.15;95.98;100569.94;5073963;28;20049;-67
2021/11/23 11:19:04;;;;;;;2.47;1.85;;;;;;;-8.14;95.94;100569.13;5074209;28;20051;-67
2021/11/23 11:21:36;;;;;;;5.60;2.08;;;;;;;-8.05;96.29;100555.81;5073938;28;20048;-67
2021/11/23 11:24:25;;;;;;;7.32;2.90;;;;;;;-7.88;95.08;100556.09;5074384;28;20086;-67
2021/11/23 11:26:55;;;;;;;1.38;1.27;;;;;;;-7.97;95.29;100539.09;5074059;28;20506;-67